createdAt,value
2019-05-15T00:04:01.226Z,0.80
2019-05-15T00:09:04.462Z,1.00
2019-05-15T00:14:08.512Z,0.70
2019-05-15T00:19:09.617Z,0.70
2019-05-15T00:24:13.114Z,0.50
2019-05-15T00:29:16.386Z,0.67
2019-05-15T00:34:18.425Z,0.83
2019-05-15T00:39:20.016Z,0.87
2019-05-15T00:44:21.599Z,0.73
2019-05-15T00:49:26.164Z,0.70
2019-05-15T00:54:28.965Z,0.80
2019-05-15T00:59:30.577Z,0.70
2019-05-15T01:04:32.144Z,0.80
2019-05-15T01:09:33.697Z,0.70
2019-05-15T01:14:35.246Z,0.77
2019-05-15T01:19:38.119Z,0.80
2019-05-15T01:24:39.861Z,0.83
2019-05-15T01:29:45.202Z,0.90
2019-05-15T01:34:46.076Z,0.90
2019-05-15T01:39:48.556Z,1.10
2019-05-15T01:44:50.293Z,0.70
2019-05-15T01:49:51.899Z,1.00
2019-05-15T01:54:53.453Z,0.80
2019-05-15T01:59:58.298Z,1.07
2019-05-15T02:04:59.240Z,0.80
2019-05-15T02:10:02.527Z,0.80
2019-05-15T02:15:04.772Z,0.93
2019-05-15T02:20:08.310Z,0.80
2019-05-15T02:25:10.407Z,0.90
2019-05-15T02:30:22.638Z,0.80
2019-05-15T02:35:18.394Z,0.83
2019-05-15T02:40:19.401Z,1.00
2019-05-15T02:45:21.081Z,1.57
2019-05-15T02:50:22.759Z,1.40
2019-05-15T02:55:24.320Z,0.97
2019-05-15T03:00:37.835Z,1.00
2019-05-15T03:05:29.695Z,0.93
2019-05-15T03:10:31.445Z,0.70
2019-05-15T03:15:33.249Z,0.97
2019-05-15T03:20:34.807Z,0.93
2019-05-15T03:25:39.858Z,1.50
2019-05-15T03:31:11.419Z,0.80
2019-05-15T03:35:44.714Z,0.90
2019-05-15T03:40:49.612Z,1.00
2019-05-15T03:45:50.263Z,0.90
2019-05-15T03:50:51.952Z,0.90
2019-05-15T03:55:53.516Z,1.00
2019-05-15T04:00:55.239Z,0.80
2019-05-15T04:06:00.228Z,1.13
2019-05-15T04:11:00.504Z,1.10
2019-05-15T04:16:02.174Z,0.97
2019-05-15T04:21:04.129Z,0.80
2019-05-15T04:26:09.327Z,1.00
2019-05-15T04:31:10.178Z,1.23
2019-05-15T04:36:11.854Z,1.10
2019-05-15T04:41:13.434Z,1.00
2019-05-15T04:46:15.136Z,1.10
2019-05-15T04:51:19.042Z,1.00
2019-05-15T04:56:20.481Z,1.30
2019-05-15T05:01:22.217Z,1.47
2019-05-15T05:06:23.865Z,1.30
2019-05-15T05:11:25.551Z,1.03
2019-05-15T05:16:29.541Z,1.03
2019-05-15T05:21:30.676Z,1.00
2019-05-15T05:26:32.334Z,1.33
2019-05-15T05:31:33.954Z,1.20
2019-05-15T05:36:35.542Z,1.13
2019-05-15T05:41:39.191Z,1.20
2019-05-15T05:46:40.691Z,1.20
2019-05-15T05:51:42.257Z,1.30
2019-05-15T05:56:43.819Z,1.13
2019-05-15T06:01:45.379Z,1.10
2019-05-15T06:06:50.091Z,1.17
2019-05-15T06:11:50.603Z,1.00
2019-05-15T06:16:52.171Z,1.10
2019-05-15T06:21:57.602Z,0.90
2019-05-15T06:26:58.668Z,1.27
2019-05-15T06:32:00.524Z,1.00
2019-05-15T06:37:02.337Z,1.03
2019-05-15T06:42:03.939Z,1.17
2019-05-15T06:47:08.070Z,1.00
2019-05-15T06:52:09.023Z,1.10
2019-05-15T06:57:10.578Z,1.07
2019-05-15T07:02:12.288Z,0.60
2019-05-15T07:07:13.943Z,1.30
2019-05-15T07:12:15.650Z,1.10
2019-05-15T07:17:17.735Z,0.90
2019-05-15T07:22:19.533Z,0.90
2019-05-15T07:27:21.089Z,0.80
2019-05-15T07:32:22.650Z,0.90
2019-05-15T07:37:24.215Z,1.10
2019-05-15T07:42:25.907Z,1.00
2019-05-15T07:47:29.293Z,0.60
2019-05-15T07:52:31.049Z,0.70
2019-05-15T07:57:32.704Z,0.50
2019-05-15T08:02:34.276Z,0.80
2019-05-15T08:07:38.618Z,1.20
2019-05-15T08:12:39.686Z,0.60
2019-05-15T08:18:02.644Z,0.90
2019-05-15T08:22:45.966Z,0.67
2019-05-15T08:27:48.482Z,0.60
2019-05-15T08:32:51.723Z,1.00
2019-05-15T08:37:53.693Z,0.70
2019-05-15T08:42:59.504Z,0.70
2019-05-15T08:47:58.899Z,1.00
2019-05-15T08:53:00.485Z,1.00
2019-05-15T08:58:07.276Z,0.80
2019-05-15T09:03:05.782Z,1.00
2019-05-15T09:08:09.321Z,0.80
2019-05-15T09:13:10.903Z,0.90
2019-05-15T09:18:16.258Z,1.00
2019-05-15T09:23:18.840Z,0.67
2019-05-15T09:28:19.654Z,0.80
2019-05-15T09:33:21.442Z,1.10
2019-05-15T09:38:22.987Z,0.93
2019-05-15T09:43:24.551Z,0.90
2019-05-15T09:48:28.602Z,0.80
2019-05-15T09:53:29.786Z,0.93
2019-05-15T09:58:31.332Z,0.90
2019-05-15T10:03:33.049Z,1.23
2019-05-15T10:08:34.720Z,1.03
2019-05-15T10:13:38.431Z,0.90
2019-05-15T10:18:40.006Z,1.20
2019-05-15T10:23:41.647Z,0.80
2019-05-15T10:28:43.243Z,0.97
2019-05-15T10:33:44.829Z,0.80
2019-05-15T10:38:48.852Z,0.97
2019-05-15T10:43:56.349Z,0.90
2019-05-15T10:48:53.529Z,1.00
2019-05-15T10:53:55.085Z,1.13
2019-05-15T10:58:58.916Z,0.93
2019-05-15T11:04:00.242Z,0.97
2019-05-15T11:09:01.968Z,1.00
2019-05-15T11:14:04.045Z,0.87
2019-05-15T11:19:07.877Z,0.90
2019-05-15T11:24:09.051Z,0.70
2019-05-15T11:29:10.609Z,0.80
2019-05-15T11:34:12.169Z,0.73
2019-05-15T11:39:13.755Z,0.80
2019-05-15T11:44:15.387Z,0.80
2019-05-15T11:49:18.256Z,0.77
2019-05-15T11:54:20.056Z,0.80
2019-05-15T11:59:21.585Z,0.77
2019-05-15T12:04:30.458Z,1.00
2019-05-15T12:09:28.277Z,0.83
2019-05-15T12:14:30.052Z,0.70
2019-05-15T12:19:32.320Z,0.90
2019-05-15T12:24:36.788Z,0.63
2019-05-15T12:29:39.858Z,0.63
2019-05-15T12:34:40.931Z,0.80
2019-05-15T12:39:42.474Z,1.00
2019-05-15T12:59:54.521Z,0.73
2019-05-15T13:04:56.180Z,0.90
2019-05-15T13:09:58.009Z,0.70
2019-05-15T13:14:59.621Z,0.77
2019-05-15T13:20:01.419Z,0.77
2019-05-15T13:25:03.708Z,1.47
2019-05-15T13:30:08.799Z,0.93
2019-05-15T13:35:10.329Z,0.70
2019-05-15T13:40:12.067Z,0.83
2019-05-15T13:45:13.915Z,0.90
2019-05-15T13:50:15.687Z,0.90
2019-05-15T13:55:24.637Z,1.00
2019-05-15T14:00:21.244Z,0.70
2019-05-15T14:05:22.796Z,0.60
2019-05-15T14:10:24.343Z,0.90
2019-05-15T14:15:26.048Z,1.20
2019-05-15T14:20:27.594Z,1.07
2019-05-15T14:25:29.235Z,1.00
2019-05-15T14:30:30.872Z,0.80
2019-05-15T14:35:32.520Z,1.00
2019-05-15T14:40:34.182Z,0.87
2019-05-15T14:45:35.842Z,0.80
2019-05-15T14:50:38.393Z,1.00
2019-05-15T14:55:44.041Z,0.90
2019-05-15T15:00:43.969Z,1.00
2019-05-15T15:05:45.698Z,1.00
2019-05-15T15:10:47.273Z,0.93
2019-05-15T15:15:48.816Z,0.87
2019-05-15T15:20:50.653Z,1.00
2019-05-15T15:25:52.267Z,1.20
2019-05-15T15:30:53.808Z,1.17
2019-05-15T15:35:55.505Z,1.10
2019-05-15T15:41:00.061Z,1.20
2019-05-15T15:46:00.776Z,1.47
2019-05-15T15:51:02.342Z,1.33
2019-05-15T15:56:06.899Z,3.67
2019-05-15T16:01:09.062Z,4.17
2019-05-15T16:06:13.148Z,1.93
2019-05-15T16:11:14.990Z,1.70
2019-05-15T16:16:17.959Z,2.13
2019-05-15T16:21:19.687Z,1.77
2019-05-15T16:26:21.239Z,1.30
2019-05-15T16:31:22.784Z,1.40
2019-05-15T16:36:24.679Z,1.13
2019-05-15T16:41:28.823Z,1.20
2019-05-15T16:46:30.038Z,1.10
2019-05-15T16:51:32.450Z,1.10
2019-05-15T16:56:36.425Z,1.13
2019-05-15T17:01:39.339Z,0.87
2019-05-15T17:06:41.293Z,0.80
2019-05-15T17:11:43.057Z,0.80
2019-05-15T17:16:44.648Z,0.90
2019-05-15T17:21:48.184Z,0.83
2019-05-15T17:26:51.907Z,1.07
2019-05-15T17:31:54.055Z,1.00
2019-05-15T17:36:58.169Z,1.20
2019-05-15T17:41:59.519Z,1.30
2019-05-15T17:47:01.312Z,1.47
2019-05-15T17:52:03.212Z,2.27
2019-05-15T17:57:04.839Z,4.53
2019-05-15T18:02:08.535Z,6.27
2019-05-15T18:07:10.062Z,3.00
2019-05-15T18:12:12.725Z,1.80
2019-05-15T18:17:14.582Z,1.00
2019-05-15T18:22:18.085Z,1.20
2019-05-15T18:27:19.627Z,1.10
2019-05-15T18:32:21.363Z,1.10
2019-05-15T18:37:22.955Z,1.10
2019-05-15T18:42:24.945Z,1.10
2019-05-15T18:47:28.031Z,0.90
2019-05-15T18:52:29.698Z,1.10
2019-05-15T18:57:31.293Z,1.27
2019-05-15T19:02:32.976Z,1.00
2019-05-15T19:07:34.569Z,1.10
2019-05-15T19:12:37.890Z,1.30
2019-05-15T19:17:39.583Z,1.43
2019-05-15T19:22:48.484Z,1.27
2019-05-15T19:27:50.029Z,1.30
2019-05-15T19:32:51.591Z,1.33
2019-05-15T19:37:53.342Z,1.47
2019-05-15T19:42:54.962Z,1.57
2019-05-15T19:47:58.648Z,1.20
2019-05-15T19:53:00.072Z,1.30
2019-05-15T19:58:01.802Z,1.40
2019-05-15T20:03:03.585Z,1.33
2019-05-15T20:08:05.250Z,1.07
2019-05-15T20:13:06.800Z,1.40
2019-05-15T20:18:08.371Z,1.40
2019-05-15T20:23:10.051Z,1.30
2019-05-15T20:28:12.698Z,1.40
2019-05-15T20:33:14.292Z,1.20
2019-05-15T20:38:16.030Z,1.30
2019-05-15T20:43:18.553Z,1.10
2019-05-15T20:48:20.255Z,1.20
2019-05-15T20:53:21.993Z,1.20
2019-05-15T20:58:23.610Z,1.00
2019-05-15T21:03:25.215Z,0.80
2019-05-15T21:08:28.764Z,0.80
2019-05-15T21:13:30.334Z,1.03
2019-05-15T21:18:31.918Z,1.00
2019-05-15T21:23:33.512Z,0.87
2019-05-15T21:28:35.075Z,1.10
2019-05-15T21:33:36.690Z,1.00
2019-05-15T21:38:38.838Z,0.80
2019-05-15T21:43:40.638Z,0.80
2019-05-15T21:48:42.178Z,1.20
2019-05-15T21:53:43.748Z,0.93
2019-05-15T21:58:45.283Z,0.80
2019-05-15T22:03:48.168Z,0.63
2019-05-15T22:08:49.993Z,0.90
2019-05-15T22:13:51.617Z,0.60
2019-05-15T22:18:53.162Z,0.90
2019-05-15T22:23:55.021Z,0.80
2019-05-15T22:28:58.441Z,0.90
2019-05-15T22:34:00.457Z,0.80
2019-05-15T22:39:02.353Z,0.83
2019-05-15T22:44:04.037Z,0.90
2019-05-15T22:49:05.872Z,0.90
2019-05-15T22:54:08.618Z,1.13
2019-05-15T22:59:10.404Z,0.80
2019-05-15T23:04:12.275Z,0.70
2019-05-15T23:09:13.827Z,0.90
2019-05-15T23:14:15.383Z,0.90
2019-05-15T23:19:18.701Z,0.90
2019-05-15T23:24:20.631Z,1.03
2019-05-15T23:29:22.188Z,1.00
2019-05-15T23:34:23.753Z,0.80
2019-05-15T23:39:25.422Z,0.80
2019-05-15T23:44:27.677Z,0.83
2019-05-15T23:49:29.618Z,0.90
2019-05-15T23:54:31.145Z,1.30
2019-05-15T23:59:32.818Z,1.10
